sensor_id;sensor_type;location;lat;lon;timestamp;P1;durP1;ratioP1;P2;durP2;ratioP2
16310;SDS011;8264;48.510;8.872;2023-06-22T00:00:33;14.90;;;9.03;;
16310;SDS011;8264;48.510;8.872;2023-06-22T00:02:59;9.87;;;8.57;;
16310;SDS011;8264;48.510;8.872;2023-06-22T00:05:26;10.17;;;8.40;;
16310;SDS011;8264;48.510;8.872;2023-06-22T00:07:54;8.27;;;7.47;;
16310;SDS011;8264;48.510;8.872;2023-06-22T00:10:20;10.87;;;8.23;;
16310;SDS011;8264;48.510;8.872;2023-06-22T00:12:47;10.47;;;8.47;;
16310;SDS011;8264;48.510;8.872;2023-06-22T00:15:13;10.10;;;8.90;;
16310;SDS011;8264;48.510;8.872;2023-06-22T00:17:40;12.77;;;8.67;;
16310;SDS011;8264;48.510;8.872;2023-06-22T00:20:07;10.30;;;9.20;;
16310;SDS011;8264;48.510;8.872;2023-06-22T00:22:35;9.97;;;8.20;;
16310;SDS011;8264;48.510;8.872;2023-06-22T00:25:06;11.23;;;8.87;;
16310;SDS011;8264;48.510;8.872;2023-06-22T00:27:33;13.53;;;10.07;;
16310;SDS011;8264;48.510;8.872;2023-06-22T00:29:59;10.30;;;8.87;;
16310;SDS011;8264;48.510;8.872;2023-06-22T00:32:26;12.67;;;9.30;;
16310;SDS011;8264;48.510;8.872;2023-06-22T00:34:52;10.00;;;9.00;;
16310;SDS011;8264;48.510;8.872;2023-06-22T00:37:19;12.27;;;8.50;;
16310;SDS011;8264;48.510;8.872;2023-06-22T00:39:47;10.83;;;9.23;;
16310;SDS011;8264;48.510;8.872;2023-06-22T00:42:16;12.33;;;9.47;;
16310;SDS011;8264;48.510;8.872;2023-06-22T00:44:42;12.57;;;9.47;;
16310;SDS011;8264;48.510;8.872;2023-06-22T00:47:09;14.27;;;10.33;;
16310;SDS011;8264;48.510;8.872;2023-06-22T00:49:37;18.77;;;11.03;;
16310;SDS011;8264;48.510;8.872;2023-06-22T00:52:04;16.20;;;11.13;;
16310;SDS011;8264;48.510;8.872;2023-06-22T00:54:34;17.20;;;11.63;;
16310;SDS011;8264;48.510;8.872;2023-06-22T00:57:01;17.63;;;11.33;;
16310;SDS011;8264;48.510;8.872;2023-06-22T00:59:29;13.17;;;11.10;;
16310;SDS011;8264;48.510;8.872;2023-06-22T01:01:57;17.47;;;11.83;;
16310;SDS011;8264;48.510;8.872;2023-06-22T01:04:33;18.63;;;12.20;;
16310;SDS011;8264;48.510;8.872;2023-06-22T01:07:01;17.27;;;11.47;;
16310;SDS011;8264;48.510;8.872;2023-06-22T01:09:32;18.40;;;12.50;;
16310;SDS011;8264;48.510;8.872;2023-06-22T01:12:04;14.90;;;12.60;;
16310;SDS011;8264;48.510;8.872;2023-06-22T01:14:35;16.60;;;12.60;;
16310;SDS011;8264;48.510;8.872;2023-06-22T01:17:06;13.07;;;11.70;;
16310;SDS011;8264;48.510;8.872;2023-06-22T01:19:35;14.73;;;12.23;;
16310;SDS011;8264;48.510;8.872;2023-06-22T01:22:06;14.07;;;12.47;;
16310;SDS011;8264;48.510;8.872;2023-06-22T01:24:46;16.17;;;12.13;;
16310;SDS011;8264;48.510;8.872;2023-06-22T01:27:20;15.67;;;12.50;;
16310;SDS011;8264;48.510;8.872;2023-06-22T01:29:56;15.53;;;12.03;;
16310;SDS011;8264;48.510;8.872;2023-06-22T01:32:25;17.00;;;12.20;;
16310;SDS011;8264;48.510;8.872;2023-06-22T01:34:53;16.27;;;12.47;;
16310;SDS011;8264;48.510;8.872;2023-06-22T01:37:20;17.90;;;12.50;;
16310;SDS011;8264;48.510;8.872;2023-06-22T01:39:47;13.53;;;12.13;;
16310;SDS011;8264;48.510;8.872;2023-06-22T01:42:14;14.30;;;12.77;;
16310;SDS011;8264;48.510;8.872;2023-06-22T01:44:40;19.03;;;13.33;;
16310;SDS011;8264;48.510;8.872;2023-06-22T01:47:08;16.27;;;12.33;;
16310;SDS011;8264;48.510;8.872;2023-06-22T01:49:35;20.37;;;12.07;;
16310;SDS011;8264;48.510;8.872;2023-06-22T01:52:01;14.30;;;11.63;;
16310;SDS011;8264;48.510;8.872;2023-06-22T01:54:29;14.90;;;12.70;;
16310;SDS011;8264;48.510;8.872;2023-06-22T01:56:55;18.13;;;11.50;;
16310;SDS011;8264;48.510;8.872;2023-06-22T01:59:23;16.10;;;11.57;;
16310;SDS011;8264;48.510;8.872;2023-06-22T02:01:54;12.77;;;11.10;;
16310;SDS011;8264;48.510;8.872;2023-06-22T02:04:26;14.00;;;10.77;;
16310;SDS011;8264;48.510;8.872;2023-06-22T02:06:56;18.97;;;11.20;;
16310;SDS011;8264;48.510;8.872;2023-06-22T02:09:25;16.33;;;11.80;;
16310;SDS011;8264;48.510;8.872;2023-06-22T02:11:52;16.63;;;12.57;;
16310;SDS011;8264;48.510;8.872;2023-06-22T02:14:20;12.57;;;11.20;;
16310;SDS011;8264;48.510;8.872;2023-06-22T02:16:48;14.33;;;10.57;;
16310;SDS011;8264;48.510;8.872;2023-06-22T02:19:15;12.37;;;10.50;;
16310;SDS011;8264;48.510;8.872;2023-06-22T02:21:44;17.33;;;11.00;;
16310;SDS011;8264;48.510;8.872;2023-06-22T02:24:11;16.47;;;11.20;;
16310;SDS011;8264;48.510;8.872;2023-06-22T02:26:38;15.10;;;10.40;;
16310;SDS011;8264;48.510;8.872;2023-06-22T02:29:07;20.00;;;12.50;;
16310;SDS011;8264;48.510;8.872;2023-06-22T02:31:33;17.53;;;10.20;;
16310;SDS011;8264;48.510;8.872;2023-06-22T02:34:00;17.70;;;9.97;;
16310;SDS011;8264;48.510;8.872;2023-06-22T02:36:26;15.70;;;10.80;;
16310;SDS011;8264;48.510;8.872;2023-06-22T02:38:56;14.63;;;10.40;;
16310;SDS011;8264;48.510;8.872;2023-06-22T02:41:26;20.13;;;11.63;;
16310;SDS011;8264;48.510;8.872;2023-06-22T02:43:52;14.43;;;9.77;;
16310;SDS011;8264;48.510;8.872;2023-06-22T02:46:19;20.53;;;11.77;;
16310;SDS011;8264;48.510;8.872;2023-06-22T02:48:45;14.07;;;11.47;;
16310;SDS011;8264;48.510;8.872;2023-06-22T02:51:12;19.83;;;10.97;;
16310;SDS011;8264;48.510;8.872;2023-06-22T02:53:40;14.07;;;10.50;;
16310;SDS011;8264;48.510;8.872;2023-06-22T02:56:10;18.97;;;12.17;;
16310;SDS011;8264;48.510;8.872;2023-06-22T02:58:37;23.40;;;11.90;;
16310;SDS011;8264;48.510;8.872;2023-06-22T03:01:04;18.60;;;13.00;;
16310;SDS011;8264;48.510;8.872;2023-06-22T03:03:31;26.47;;;13.37;;
16310;SDS011;8264;48.510;8.872;2023-06-22T03:05:57;20.90;;;12.97;;
16310;SDS011;8264;48.510;8.872;2023-06-22T03:08:25;16.17;;;10.87;;
16310;SDS011;8264;48.510;8.872;2023-06-22T03:10:52;16.90;;;10.93;;
16310;SDS011;8264;48.510;8.872;2023-06-22T03:13:20;15.17;;;10.07;;
16310;SDS011;8264;48.510;8.872;2023-06-22T03:15:47;18.63;;;11.00;;
16310;SDS011;8264;48.510;8.872;2023-06-22T03:18:13;15.87;;;12.07;;
16310;SDS011;8264;48.510;8.872;2023-06-22T03:20:40;22.87;;;12.10;;
16310;SDS011;8264;48.510;8.872;2023-06-22T03:23:07;18.53;;;10.73;;
16310;SDS011;8264;48.510;8.872;2023-06-22T03:25:33;15.33;;;9.40;;
16310;SDS011;8264;48.510;8.872;2023-06-22T03:28:01;16.03;;;11.70;;
16310;SDS011;8264;48.510;8.872;2023-06-22T03:30:28;15.47;;;12.23;;
16310;SDS011;8264;48.510;8.872;2023-06-22T03:32:55;16.93;;;14.37;;
16310;SDS011;8264;48.510;8.872;2023-06-22T03:35:21;14.90;;;11.00;;
16310;SDS011;8264;48.510;8.872;2023-06-22T03:37:48;17.03;;;11.10;;
16310;SDS011;8264;48.510;8.872;2023-06-22T03:40:14;15.03;;;11.50;;
16310;SDS011;8264;48.510;8.872;2023-06-22T03:42:41;14.63;;;12.77;;
16310;SDS011;8264;48.510;8.872;2023-06-22T03:45:08;21.73;;;13.10;;
16310;SDS011;8264;48.510;8.872;2023-06-22T03:47:37;16.73;;;12.30;;
16310;SDS011;8264;48.510;8.872;2023-06-22T03:50:03;17.20;;;12.37;;
16310;SDS011;8264;48.510;8.872;2023-06-22T03:52:31;13.47;;;12.00;;
16310;SDS011;8264;48.510;8.872;2023-06-22T03:54:57;15.57;;;12.70;;
16310;SDS011;8264;48.510;8.872;2023-06-22T03:57:24;14.63;;;11.53;;
16310;SDS011;8264;48.510;8.872;2023-06-22T03:59:50;17.20;;;12.20;;
16310;SDS011;8264;48.510;8.872;2023-06-22T04:02:17;19.23;;;12.13;;
16310;SDS011;8264;48.510;8.872;2023-06-22T04:04:45;17.37;;;13.70;;
16310;SDS011;8264;48.510;8.872;2023-06-22T04:07:11;15.10;;;12.23;;
16310;SDS011;8264;48.510;8.872;2023-06-22T04:09:38;19.60;;;13.10;;
16310;SDS011;8264;48.510;8.872;2023-06-22T04:12:05;18.43;;;12.47;;
16310;SDS011;8264;48.510;8.872;2023-06-22T04:14:32;16.83;;;11.00;;
16310;SDS011;8264;48.510;8.872;2023-06-22T04:16:58;14.07;;;11.27;;
16310;SDS011;8264;48.510;8.872;2023-06-22T04:19:24;19.53;;;11.17;;
16310;SDS011;8264;48.510;8.872;2023-06-22T04:21:52;13.87;;;11.77;;
16310;SDS011;8264;48.510;8.872;2023-06-22T04:24:19;18.93;;;12.57;;
16310;SDS011;8264;48.510;8.872;2023-06-22T04:26:45;24.87;;;13.30;;
16310;SDS011;8264;48.510;8.872;2023-06-22T04:29:12;23.17;;;13.20;;
16310;SDS011;8264;48.510;8.872;2023-06-22T04:31:39;16.33;;;10.37;;
16310;SDS011;8264;48.510;8.872;2023-06-22T04:34:06;17.20;;;12.33;;
16310;SDS011;8264;48.510;8.872;2023-06-22T04:36:34;12.97;;;11.67;;
16310;SDS011;8264;48.510;8.872;2023-06-22T04:39:06;16.73;;;12.30;;
16310;SDS011;8264;48.510;8.872;2023-06-22T04:41:34;16.27;;;11.73;;
16310;SDS011;8264;48.510;8.872;2023-06-22T04:44:07;18.77;;;11.77;;
16310;SDS011;8264;48.510;8.872;2023-06-22T04:46:36;16.43;;;11.40;;
16310;SDS011;8264;48.510;8.872;2023-06-22T04:49:04;15.53;;;12.17;;
16310;SDS011;8264;48.510;8.872;2023-06-22T04:51:35;17.23;;;12.13;;
16310;SDS011;8264;48.510;8.872;2023-06-22T04:54:03;18.17;;;12.67;;
16310;SDS011;8264;48.510;8.872;2023-06-22T04:56:32;14.97;;;12.13;;
16310;SDS011;8264;48.510;8.872;2023-06-22T04:58:59;17.40;;;12.50;;
16310;SDS011;8264;48.510;8.872;2023-06-22T05:01:25;18.13;;;11.97;;
16310;SDS011;8264;48.510;8.872;2023-06-22T05:03:52;15.67;;;11.93;;
16310;SDS011;8264;48.510;8.872;2023-06-22T05:06:20;16.87;;;11.40;;
16310;SDS011;8264;48.510;8.872;2023-06-22T05:08:49;13.23;;;11.73;;
16310;SDS011;8264;48.510;8.872;2023-06-22T05:11:16;14.67;;;12.20;;
16310;SDS011;8264;48.510;8.872;2023-06-22T05:13:43;13.33;;;11.93;;
16310;SDS011;8264;48.510;8.872;2023-06-22T05:16:10;19.43;;;12.47;;
16310;SDS011;8264;48.510;8.872;2023-06-22T05:18:36;17.70;;;12.50;;
16310;SDS011;8264;48.510;8.872;2023-06-22T05:21:03;14.97;;;12.07;;
16310;SDS011;8264;48.510;8.872;2023-06-22T05:23:29;14.37;;;10.97;;
16310;SDS011;8264;48.510;8.872;2023-06-22T05:25:56;16.60;;;11.17;;
16310;SDS011;8264;48.510;8.872;2023-06-22T05:28:22;13.20;;;10.37;;
16310;SDS011;8264;48.510;8.872;2023-06-22T05:30:50;12.10;;;10.27;;
16310;SDS011;8264;48.510;8.872;2023-06-22T05:33:17;15.30;;;10.77;;
16310;SDS011;8264;48.510;8.872;2023-06-22T05:35:43;12.43;;;10.33;;
16310;SDS011;8264;48.510;8.872;2023-06-22T05:38:10;12.07;;;10.33;;
16310;SDS011;8264;48.510;8.872;2023-06-22T05:40:36;15.57;;;10.30;;
16310;SDS011;8264;48.510;8.872;2023-06-22T05:43:03;14.63;;;9.93;;
16310;SDS011;8264;48.510;8.872;2023-06-22T05:45:29;12.77;;;9.73;;
16310;SDS011;8264;48.510;8.872;2023-06-22T05:47:57;11.17;;;9.27;;
16310;SDS011;8264;48.510;8.872;2023-06-22T05:50:24;13.63;;;9.70;;
16310;SDS011;8264;48.510;8.872;2023-06-22T05:52:50;11.33;;;9.17;;
16310;SDS011;8264;48.510;8.872;2023-06-22T05:55:17;15.30;;;10.40;;
16310;SDS011;8264;48.510;8.872;2023-06-22T05:57:44;9.67;;;8.23;;
16310;SDS011;8264;48.510;8.872;2023-06-22T06:00:10;12.33;;;8.43;;
16310;SDS011;8264;48.510;8.872;2023-06-22T06:02:38;10.13;;;8.00;;
16310;SDS011;8264;48.510;8.872;2023-06-22T06:05:10;12.67;;;8.63;;
16310;SDS011;8264;48.510;8.872;2023-06-22T06:07:38;15.70;;;9.10;;
16310;SDS011;8264;48.510;8.872;2023-06-22T06:10:05;10.70;;;8.17;;
16310;SDS011;8264;48.510;8.872;2023-06-22T06:12:33;12.63;;;8.40;;
16310;SDS011;8264;48.510;8.872;2023-06-22T06:14:59;10.33;;;8.23;;
16310;SDS011;8264;48.510;8.872;2023-06-22T06:17:26;10.37;;;7.33;;
16310;SDS011;8264;48.510;8.872;2023-06-22T06:19:52;7.47;;;6.77;;
16310;SDS011;8264;48.510;8.872;2023-06-22T06:22:20;9.60;;;6.63;;
16310;SDS011;8264;48.510;8.872;2023-06-22T06:24:48;8.03;;;6.43;;
16310;SDS011;8264;48.510;8.872;2023-06-22T06:27:15;11.33;;;6.07;;
16310;SDS011;8264;48.510;8.872;2023-06-22T06:29:43;7.57;;;5.80;;
16310;SDS011;8264;48.510;8.872;2023-06-22T06:32:10;8.63;;;6.00;;
16310;SDS011;8264;48.510;8.872;2023-06-22T06:34:37;7.60;;;5.70;;
16310;SDS011;8264;48.510;8.872;2023-06-22T06:37:03;6.90;;;5.10;;
16310;SDS011;8264;48.510;8.872;2023-06-22T06:39:31;7.70;;;5.00;;
16310;SDS011;8264;48.510;8.872;2023-06-22T06:41:58;7.60;;;5.40;;
16310;SDS011;8264;48.510;8.872;2023-06-22T06:44:24;8.23;;;5.20;;
16310;SDS011;8264;48.510;8.872;2023-06-22T06:46:51;9.23;;;5.77;;
16310;SDS011;8264;48.510;8.872;2023-06-22T06:49:19;8.83;;;5.37;;
16310;SDS011;8264;48.510;8.872;2023-06-22T06:51:45;7.50;;;5.77;;
16310;SDS011;8264;48.510;8.872;2023-06-22T06:54:12;8.83;;;5.10;;
16310;SDS011;8264;48.510;8.872;2023-06-22T06:56:40;10.73;;;5.30;;
16310;SDS011;8264;48.510;8.872;2023-06-22T06:59:13;7.63;;;6.23;;
16310;SDS011;8264;48.510;8.872;2023-06-22T07:01:39;11.63;;;7.90;;
16310;SDS011;8264;48.510;8.872;2023-06-22T07:04:06;8.20;;;5.50;;
16310;SDS011;8264;48.510;8.872;2023-06-22T07:06:32;11.37;;;5.50;;
16310;SDS011;8264;48.510;8.872;2023-06-22T07:08:59;8.63;;;5.33;;
16310;SDS011;8264;48.510;8.872;2023-06-22T07:11:26;9.07;;;5.43;;
16310;SDS011;8264;48.510;8.872;2023-06-22T07:13:54;12.13;;;5.50;;
16310;SDS011;8264;48.510;8.872;2023-06-22T07:16:20;7.30;;;5.97;;
16310;SDS011;8264;48.510;8.872;2023-06-22T07:18:48;10.53;;;5.50;;
16310;SDS011;8264;48.510;8.872;2023-06-22T07:21:14;10.63;;;5.00;;
16310;SDS011;8264;48.510;8.872;2023-06-22T07:23:41;10.50;;;5.10;;
16310;SDS011;8264;48.510;8.872;2023-06-22T07:26:07;7.83;;;5.20;;
16310;SDS011;8264;48.510;8.872;2023-06-22T07:28:34;9.33;;;5.30;;
16310;SDS011;8264;48.510;8.872;2023-06-22T07:31:04;7.90;;;5.57;;
16310;SDS011;8264;48.510;8.872;2023-06-22T07:33:30;8.83;;;5.03;;
16310;SDS011;8264;48.510;8.872;2023-06-22T07:35:57;8.20;;;4.67;;
16310;SDS011;8264;48.510;8.872;2023-06-22T07:38:23;7.43;;;5.20;;
16310;SDS011;8264;48.510;8.872;2023-06-22T07:40:50;9.77;;;5.67;;
16310;SDS011;8264;48.510;8.872;2023-06-22T07:43:18;7.70;;;5.47;;
16310;SDS011;8264;48.510;8.872;2023-06-22T07:45:48;7.50;;;5.13;;
16310;SDS011;8264;48.510;8.872;2023-06-22T07:48:19;9.83;;;5.33;;
16310;SDS011;8264;48.510;8.872;2023-06-22T07:50:47;13.63;;;6.00;;
16310;SDS011;8264;48.510;8.872;2023-06-22T07:53:14;24.37;;;21.07;;
16310;SDS011;8264;48.510;8.872;2023-06-22T07:55:40;11.20;;;6.40;;
16310;SDS011;8264;48.510;8.872;2023-06-22T07:58:07;10.37;;;6.20;;
16310;SDS011;8264;48.510;8.872;2023-06-22T08:00:34;11.43;;;6.00;;
16310;SDS011;8264;48.510;8.872;2023-06-22T08:03:00;12.83;;;6.37;;
16310;SDS011;8264;48.510;8.872;2023-06-22T08:05:29;9.73;;;5.53;;
16310;SDS011;8264;48.510;8.872;2023-06-22T08:07:56;13.30;;;5.20;;
16310;SDS011;8264;48.510;8.872;2023-06-22T08:10:23;7.90;;;5.13;;
16310;SDS011;8264;48.510;8.872;2023-06-22T08:12:49;8.57;;;6.10;;
16310;SDS011;8264;48.510;8.872;2023-06-22T08:15:16;11.73;;;7.40;;
16310;SDS011;8264;48.510;8.872;2023-06-22T08:17:43;17.23;;;6.63;;
16310;SDS011;8264;48.510;8.872;2023-06-22T08:20:10;11.67;;;6.27;;
16310;SDS011;8264;48.510;8.872;2023-06-22T08:22:39;9.53;;;6.13;;
16310;SDS011;8264;48.510;8.872;2023-06-22T08:25:06;11.80;;;7.63;;
16310;SDS011;8264;48.510;8.872;2023-06-22T08:27:34;8.57;;;6.10;;
16310;SDS011;8264;48.510;8.872;2023-06-22T08:30:00;11.53;;;6.00;;
16310;SDS011;8264;48.510;8.872;2023-06-22T08:32:27;9.80;;;6.60;;
16310;SDS011;8264;48.510;8.872;2023-06-22T08:34:54;8.77;;;5.10;;
16310;SDS011;8264;48.510;8.872;2023-06-22T08:37:21;12.60;;;5.80;;
16310;SDS011;8264;48.510;8.872;2023-06-22T08:39:51;11.63;;;5.93;;
16310;SDS011;8264;48.510;8.872;2023-06-22T08:42:18;10.20;;;6.40;;
16310;SDS011;8264;48.510;8.872;2023-06-22T08:44:45;7.37;;;5.30;;
16310;SDS011;8264;48.510;8.872;2023-06-22T08:53:55;15.23;;;6.40;;
16310;SDS011;8264;48.510;8.872;2023-06-22T08:56:23;10.00;;;6.37;;
16310;SDS011;8264;48.510;8.872;2023-06-22T08:58:49;12.87;;;4.93;;
16310;SDS011;8264;48.510;8.872;2023-06-22T09:01:16;10.33;;;5.40;;
16310;SDS011;8264;48.510;8.872;2023-06-22T09:03:42;9.03;;;4.63;;
16310;SDS011;8264;48.510;8.872;2023-06-22T09:06:09;27.93;;;24.97;;
16310;SDS011;8264;48.510;8.872;2023-06-22T09:08:36;10.67;;;7.17;;
16310;SDS011;8264;48.510;8.872;2023-06-22T09:11:02;8.27;;;6.57;;
16310;SDS011;8264;48.510;8.872;2023-06-22T09:13:30;8.20;;;5.23;;
16310;SDS011;8264;48.510;8.872;2023-06-22T09:15:57;11.97;;;5.70;;
16310;SDS011;8264;48.510;8.872;2023-06-22T09:18:23;9.47;;;5.20;;
16310;SDS011;8264;48.510;8.872;2023-06-22T09:20:50;11.50;;;5.07;;
16310;SDS011;8264;48.510;8.872;2023-06-22T09:23:16;9.80;;;5.57;;
16310;SDS011;8264;48.510;8.872;2023-06-22T09:25:43;9.50;;;5.47;;
16310;SDS011;8264;48.510;8.872;2023-06-22T09:28:09;10.13;;;6.00;;
16310;SDS011;8264;48.510;8.872;2023-06-22T09:30:37;11.17;;;6.93;;
16310;SDS011;8264;48.510;8.872;2023-06-22T09:33:04;11.07;;;5.80;;
16310;SDS011;8264;48.510;8.872;2023-06-22T09:35:30;11.93;;;5.67;;
16310;SDS011;8264;48.510;8.872;2023-06-22T09:37:57;9.20;;;5.63;;
16310;SDS011;8264;48.510;8.872;2023-06-22T09:40:23;11.83;;;5.40;;
16310;SDS011;8264;48.510;8.872;2023-06-22T09:42:50;11.35;;;5.35;;
16310;SDS011;8264;48.510;8.872;2023-06-22T09:45:16;10.33;;;5.00;;
16310;SDS011;8264;48.510;8.872;2023-06-22T09:47:44;13.00;;;5.93;;
16310;SDS011;8264;48.510;8.872;2023-06-22T09:50:11;11.83;;;5.63;;
16310;SDS011;8264;48.510;8.872;2023-06-22T09:52:38;9.43;;;5.27;;
16310;SDS011;8264;48.510;8.872;2023-06-22T09:55:05;9.17;;;5.97;;
16310;SDS011;8264;48.510;8.872;2023-06-22T09:57:31;9.93;;;5.23;;
16310;SDS011;8264;48.510;8.872;2023-06-22T09:59:58;10.03;;;5.50;;
16310;SDS011;8264;48.510;8.872;2023-06-22T10:02:24;16.27;;;5.70;;
16310;SDS011;8264;48.510;8.872;2023-06-22T10:04:52;8.70;;;5.33;;
16310;SDS011;8264;48.510;8.872;2023-06-22T10:07:19;10.37;;;5.47;;
16310;SDS011;8264;48.510;8.872;2023-06-22T10:09:45;10.20;;;5.27;;
16310;SDS011;8264;48.510;8.872;2023-06-22T10:12:12;7.50;;;5.67;;
16310;SDS011;8264;48.510;8.872;2023-06-22T10:14:38;10.97;;;5.37;;
16310;SDS011;8264;48.510;8.872;2023-06-22T10:17:05;10.43;;;5.30;;
16310;SDS011;8264;48.510;8.872;2023-06-22T10:19:32;9.20;;;5.23;;
16310;SDS011;8264;48.510;8.872;2023-06-22T10:22:03;9.15;;;5.13;;
16310;SDS011;8264;48.510;8.872;2023-06-22T10:24:30;8.67;;;5.30;;
16310;SDS011;8264;48.510;8.872;2023-06-22T10:26:57;11.70;;;5.07;;
16310;SDS011;8264;48.510;8.872;2023-06-22T10:29:23;11.90;;;5.57;;
16310;SDS011;8264;48.510;8.872;2023-06-22T10:31:50;9.75;;;5.35;;
16310;SDS011;8264;48.510;8.872;2023-06-22T10:34:16;8.63;;;4.83;;
16310;SDS011;8264;48.510;8.872;2023-06-22T10:36:43;25.77;;;23.02;;
16310;SDS011;8264;48.510;8.872;2023-06-22T10:39:13;14.70;;;7.63;;
16310;SDS011;8264;48.510;8.872;2023-06-22T10:41:40;9.40;;;5.40;;
16310;SDS011;8264;48.510;8.872;2023-06-22T10:44:06;10.83;;;5.20;;
16310;SDS011;8264;48.510;8.872;2023-06-22T10:46:33;10.43;;;5.73;;
16310;SDS011;8264;48.510;8.872;2023-06-22T10:48:59;11.73;;;5.77;;
16310;SDS011;8264;48.510;8.872;2023-06-22T10:51:26;11.93;;;5.43;;
16310;SDS011;8264;48.510;8.872;2023-06-22T10:53:53;10.93;;;5.93;;
16310;SDS011;8264;48.510;8.872;2023-06-22T10:56:21;10.13;;;6.05;;
16310;SDS011;8264;48.510;8.872;2023-06-22T10:58:47;10.98;;;5.13;;
16310;SDS011;8264;48.510;8.872;2023-06-22T11:01:14;10.30;;;6.07;;
16310;SDS011;8264;48.510;8.872;2023-06-22T11:03:40;11.98;;;6.20;;
16310;SDS011;8264;48.510;8.872;2023-06-22T11:06:07;11.00;;;6.10;;
16310;SDS011;8264;48.510;8.872;2023-06-22T11:08:33;10.07;;;5.93;;
16310;SDS011;8264;48.510;8.872;2023-06-22T11:11:00;11.40;;;5.72;;
16310;SDS011;8264;48.510;8.872;2023-06-22T11:13:28;7.25;;;5.22;;
16310;SDS011;8264;48.510;8.872;2023-06-22T11:15:54;7.00;;;4.25;;
16310;SDS011;8264;48.510;8.872;2023-06-22T11:18:21;13.05;;;5.60;;
16310;SDS011;8264;48.510;8.872;2023-06-22T11:20:48;7.22;;;5.05;;
16310;SDS011;8264;48.510;8.872;2023-06-22T11:23:14;11.52;;;5.65;;
16310;SDS011;8264;48.510;8.872;2023-06-22T11:25:41;11.02;;;5.20;;
16310;SDS011;8264;48.510;8.872;2023-06-22T11:28:08;12.55;;;5.22;;
16310;SDS011;8264;48.510;8.872;2023-06-22T11:30:35;7.65;;;4.68;;
16310;SDS011;8264;48.510;8.872;2023-06-22T11:33:02;7.07;;;4.90;;
16310;SDS011;8264;48.510;8.872;2023-06-22T11:35:29;9.57;;;5.60;;
16310;SDS011;8264;48.510;8.872;2023-06-22T11:37:55;9.37;;;5.40;;
16310;SDS011;8264;48.510;8.872;2023-06-22T11:40:23;8.23;;;5.03;;
16310;SDS011;8264;48.510;8.872;2023-06-22T11:42:49;10.75;;;5.53;;
16310;SDS011;8264;48.510;8.872;2023-06-22T11:45:16;7.37;;;5.00;;
16310;SDS011;8264;48.510;8.872;2023-06-22T11:47:45;10.48;;;5.43;;
16310;SDS011;8264;48.510;8.872;2023-06-22T11:50:11;10.70;;;5.60;;
16310;SDS011;8264;48.510;8.872;2023-06-22T11:52:38;10.13;;;5.33;;
16310;SDS011;8264;48.510;8.872;2023-06-22T11:55:05;10.67;;;5.20;;
16310;SDS011;8264;48.510;8.872;2023-06-22T11:57:33;12.23;;;4.93;;
16310;SDS011;8264;48.510;8.872;2023-06-22T12:00:00;11.73;;;5.30;;
16310;SDS011;8264;48.510;8.872;2023-06-22T12:02:27;8.70;;;5.20;;
16310;SDS011;8264;48.510;8.872;2023-06-22T12:04:55;10.40;;;5.43;;
16310;SDS011;8264;48.510;8.872;2023-06-22T12:07:23;39.10;;;5.90;;
16310;SDS011;8264;48.510;8.872;2023-06-22T12:09:49;8.60;;;5.27;;
16310;SDS011;8264;48.510;8.872;2023-06-22T12:12:16;10.73;;;5.50;;
16310;SDS011;8264;48.510;8.872;2023-06-22T12:14:42;14.10;;;5.43;;
16310;SDS011;8264;48.510;8.872;2023-06-22T12:17:09;9.77;;;5.50;;
16310;SDS011;8264;48.510;8.872;2023-06-22T12:19:35;7.73;;;5.00;;
16310;SDS011;8264;48.510;8.872;2023-06-22T12:22:03;9.60;;;4.77;;
16310;SDS011;8264;48.510;8.872;2023-06-22T12:24:30;11.87;;;5.00;;
16310;SDS011;8264;48.510;8.872;2023-06-22T12:26:56;9.57;;;4.87;;
16310;SDS011;8264;48.510;8.872;2023-06-22T12:29:23;12.32;;;4.82;;
16310;SDS011;8264;48.510;8.872;2023-06-22T12:31:49;15.03;;;5.40;;
16310;SDS011;8264;48.510;8.872;2023-06-22T12:34:16;10.55;;;5.05;;
16310;SDS011;8264;48.510;8.872;2023-06-22T12:36:42;17.00;;;6.10;;
16310;SDS011;8264;48.510;8.872;2023-06-22T12:39:10;16.27;;;5.97;;
16310;SDS011;8264;48.510;8.872;2023-06-22T12:41:37;15.37;;;6.00;;
16310;SDS011;8264;48.510;8.872;2023-06-22T12:44:03;11.17;;;5.50;;
16310;SDS011;8264;48.510;8.872;2023-06-22T12:46:30;12.77;;;5.63;;
16310;SDS011;8264;48.510;8.872;2023-06-22T12:49:02;16.27;;;5.90;;
16310;SDS011;8264;48.510;8.872;2023-06-22T12:51:29;13.20;;;6.20;;
16310;SDS011;8264;48.510;8.872;2023-06-22T12:53:55;9.07;;;5.27;;
16310;SDS011;8264;48.510;8.872;2023-06-22T12:56:23;12.03;;;5.47;;
16310;SDS011;8264;48.510;8.872;2023-06-22T12:58:51;13.40;;;5.57;;
16310;SDS011;8264;48.510;8.872;2023-06-22T13:01:17;9.23;;;5.73;;
16310;SDS011;8264;48.510;8.872;2023-06-22T13:03:44;14.07;;;5.67;;
16310;SDS011;8264;48.510;8.872;2023-06-22T13:06:10;9.87;;;5.60;;
16310;SDS011;8264;48.510;8.872;2023-06-22T13:08:37;10.20;;;5.53;;
16310;SDS011;8264;48.510;8.872;2023-06-22T13:11:03;8.97;;;5.83;;
16310;SDS011;8264;48.510;8.872;2023-06-22T13:13:31;10.97;;;5.80;;
16310;SDS011;8264;48.510;8.872;2023-06-22T13:15:59;8.37;;;5.60;;
16310;SDS011;8264;48.510;8.872;2023-06-22T13:18:25;12.80;;;5.97;;
16310;SDS011;8264;48.510;8.872;2023-06-22T13:20:52;13.73;;;5.80;;
16310;SDS011;8264;48.510;8.872;2023-06-22T13:23:19;9.67;;;5.53;;
16310;SDS011;8264;48.510;8.872;2023-06-22T13:25:46;10.67;;;5.90;;
16310;SDS011;8264;48.510;8.872;2023-06-22T13:28:12;11.23;;;5.50;;
16310;SDS011;8264;48.510;8.872;2023-06-22T13:30:42;14.63;;;6.27;;
16310;SDS011;8264;48.510;8.872;2023-06-22T13:33:11;9.97;;;5.67;;
16310;SDS011;8264;48.510;8.872;2023-06-22T13:35:37;12.23;;;5.60;;
16310;SDS011;8264;48.510;8.872;2023-06-22T13:38:04;13.10;;;6.30;;
16310;SDS011;8264;48.510;8.872;2023-06-22T13:40:30;10.83;;;5.63;;
16310;SDS011;8264;48.510;8.872;2023-06-22T13:42:57;9.60;;;5.83;;
16310;SDS011;8264;48.510;8.872;2023-06-22T13:45:24;8.70;;;5.50;;
16310;SDS011;8264;48.510;8.872;2023-06-22T13:47:52;12.88;;;5.07;;
16310;SDS011;8264;48.510;8.872;2023-06-22T13:50:18;11.48;;;5.57;;
16310;SDS011;8264;48.510;8.872;2023-06-22T13:52:45;12.00;;;5.53;;
16310;SDS011;8264;48.510;8.872;2023-06-22T13:55:11;13.55;;;5.80;;
16310;SDS011;8264;48.510;8.872;2023-06-22T13:57:39;12.05;;;5.78;;
16310;SDS011;8264;48.510;8.872;2023-06-22T14:00:06;11.85;;;5.50;;
16310;SDS011;8264;48.510;8.872;2023-06-22T14:02:33;13.30;;;5.57;;
16310;SDS011;8264;48.510;8.872;2023-06-22T14:05:01;10.95;;;5.20;;
16310;SDS011;8264;48.510;8.872;2023-06-22T14:07:28;16.92;;;6.30;;
16310;SDS011;8264;48.510;8.872;2023-06-22T14:09:55;8.30;;;4.93;;
16310;SDS011;8264;48.510;8.872;2023-06-22T14:12:22;14.13;;;4.75;;
16310;SDS011;8264;48.510;8.872;2023-06-22T14:14:49;9.65;;;5.10;;
16310;SDS011;8264;48.510;8.872;2023-06-22T14:17:15;10.20;;;4.03;;
16310;SDS011;8264;48.510;8.872;2023-06-22T14:19:42;15.73;;;4.35;;
16310;SDS011;8264;48.510;8.872;2023-06-22T14:22:10;10.70;;;4.60;;
16310;SDS011;8264;48.510;8.872;2023-06-22T14:24:37;16.10;;;4.75;;
16310;SDS011;8264;48.510;8.872;2023-06-22T14:27:03;8.65;;;3.55;;
16310;SDS011;8264;48.510;8.872;2023-06-22T14:29:32;11.60;;;4.93;;
16310;SDS011;8264;48.510;8.872;2023-06-22T14:31:59;13.10;;;4.88;;
16310;SDS011;8264;48.510;8.872;2023-06-22T14:34:25;10.55;;;4.18;;
16310;SDS011;8264;48.510;8.872;2023-06-22T14:36:52;10.57;;;4.00;;
16310;SDS011;8264;48.510;8.872;2023-06-22T14:39:20;8.60;;;4.10;;
16310;SDS011;8264;48.510;8.872;2023-06-22T14:41:47;13.18;;;3.38;;
16310;SDS011;8264;48.510;8.872;2023-06-22T14:44:13;10.27;;;4.20;;
16310;SDS011;8264;48.510;8.872;2023-06-22T14:46:40;16.02;;;4.20;;
16310;SDS011;8264;48.510;8.872;2023-06-22T14:49:06;12.75;;;4.10;;
16310;SDS011;8264;48.510;8.872;2023-06-22T14:51:33;13.75;;;4.32;;